createdAt,value
2022-12-11T00:02:06.487Z,98876.08
2022-12-11T00:04:38.818Z,98871.33
2022-12-11T00:07:11.152Z,98865.11
2022-12-11T00:09:43.419Z,98867.90
2022-12-11T00:12:15.704Z,98870.83
2022-12-11T00:14:48.040Z,98876.00
2022-12-11T00:17:20.334Z,98872.25
2022-12-11T00:19:52.540Z,98867.12
2022-12-11T00:22:24.803Z,98862.70
2022-12-11T00:24:57.008Z,98862.23
2022-12-11T00:27:30.007Z,98857.95
2022-12-11T00:30:02.400Z,98852.56
2022-12-11T00:32:37.605Z,98845.73
2022-12-11T00:35:11.486Z,98846.86
2022-12-11T00:37:43.845Z,98848.82
2022-12-11T00:40:16.312Z,98842.80
2022-12-11T00:42:48.727Z,98835.36
2022-12-11T00:45:21.167Z,98827.85
2022-12-11T00:47:53.439Z,98808.16
2022-12-11T00:50:25.688Z,98795.64
2022-12-11T00:52:58.034Z,98789.45
2022-12-11T00:55:30.435Z,98800.79
2022-12-11T00:58:02.699Z,98799.18
2022-12-11T01:00:34.984Z,98785.48
2022-12-11T01:03:07.824Z,98772.59
2022-12-11T01:05:40.391Z,98777.52
2022-12-11T01:08:12.878Z,98776.14
2022-12-11T01:10:45.266Z,98763.16
2022-12-11T01:13:18.372Z,98749.89
2022-12-11T01:15:50.599Z,98745.45
2022-12-11T01:18:22.980Z,98739.73
2022-12-11T01:20:55.711Z,98740.83
2022-12-11T01:23:28.411Z,98741.45
2022-12-11T01:26:05.448Z,98737.70
2022-12-11T01:28:38.443Z,98735.86
2022-12-11T01:31:13.407Z,98728.17
2022-12-11T01:33:45.902Z,98728.17
2022-12-11T01:36:20.754Z,98724.05
2022-12-11T01:38:54.535Z,98726.08
2022-12-11T01:41:26.779Z,98722.84
2022-12-11T01:44:07.528Z,98721.45
2022-12-11T01:46:41.000Z,98715.40
2022-12-11T01:49:15.448Z,98712.69
2022-12-11T01:51:51.931Z,98708.80
2022-12-11T01:54:27.416Z,98704.05
2022-12-11T01:57:02.677Z,98696.98
2022-12-11T01:59:38.574Z,98688.87
2022-12-11T02:02:11.492Z,98676.76
2022-12-11T02:04:46.072Z,98671.71
2022-12-11T02:07:18.495Z,98669.48
2022-12-11T02:09:51.414Z,98669.41
2022-12-11T02:12:28.401Z,98665.55
2022-12-11T02:15:13.332Z,98664.02
2022-12-11T02:17:49.943Z,98664.55
2022-12-11T02:20:29.586Z,98658.48
2022-12-11T02:23:26.016Z,98653.70
2022-12-11T02:26:15.182Z,98646.88
2022-12-11T02:28:52.168Z,98642.56
2022-12-11T02:31:29.524Z,98638.61
2022-12-11T02:34:06.221Z,98639.64
2022-12-11T02:36:42.900Z,98638.61
2022-12-11T02:39:17.946Z,98634.70
2022-12-11T02:41:52.568Z,98636.85
2022-12-11T02:44:30.554Z,98628.64
2022-12-11T02:47:04.576Z,98625.17
2022-12-11T02:49:37.459Z,98618.95
2022-12-11T02:52:12.608Z,98612.16
2022-12-11T02:54:48.340Z,98605.41
2022-12-11T02:57:23.847Z,98599.04
2022-12-11T02:59:56.262Z,98595.85
2022-12-11T03:02:28.726Z,98595.70
2022-12-11T03:05:02.407Z,98592.91
2022-12-11T03:07:37.696Z,98583.45
2022-12-11T03:10:12.702Z,98577.74
2022-12-11T03:12:53.060Z,98582.71
2022-12-11T03:15:35.300Z,98576.65
2022-12-11T03:18:16.970Z,98569.30
2022-12-11T03:20:55.798Z,98568.67
2022-12-11T03:23:34.743Z,98571.09
2022-12-11T03:26:11.867Z,98564.77
2022-12-11T03:28:49.926Z,98561.09
2022-12-11T03:31:31.701Z,98549.80
2022-12-11T03:34:12.337Z,98543.42
2022-12-11T03:36:46.485Z,98536.36
2022-12-11T03:39:24.506Z,98533.88
2022-12-11T03:41:58.561Z,98532.58
2022-12-11T03:44:33.641Z,98527.30
2022-12-11T03:47:08.629Z,98525.71
2022-12-11T03:49:45.890Z,98518.73
2022-12-11T03:52:18.842Z,98516.43
2022-12-11T03:54:52.743Z,98508.17
2022-12-11T03:57:30.646Z,98507.59
2022-12-11T04:00:05.247Z,98500.06
2022-12-11T04:02:37.505Z,98497.98
2022-12-11T04:05:11.899Z,98497.98
2022-12-11T04:07:44.542Z,98505.24
2022-12-11T04:10:16.883Z,98502.14
2022-12-11T04:12:49.163Z,98509.04
2022-12-11T04:15:21.626Z,98504.71
2022-12-11T04:18:19.643Z,98497.69
2022-12-11T04:21:11.402Z,98503.47
2022-12-11T04:24:01.197Z,98501.76
2022-12-11T04:26:33.467Z,98504.94
2022-12-11T04:29:05.724Z,98507.02
2022-12-11T04:31:38.033Z,98504.58
2022-12-11T04:34:10.836Z,98499.15
2022-12-11T04:36:43.208Z,98499.84
2022-12-11T04:39:15.495Z,98500.42
2022-12-11T04:41:47.792Z,98493.40
2022-12-11T04:44:20.026Z,98490.21
2022-12-11T04:46:52.316Z,98487.67
2022-12-11T04:49:24.628Z,98485.68
2022-12-11T04:51:56.871Z,98487.84
2022-12-11T04:54:30.135Z,98481.23
2022-12-11T04:57:02.373Z,98478.73
2022-12-11T04:59:34.717Z,98479.73
2022-12-11T05:02:07.033Z,98479.70
2022-12-11T05:04:39.259Z,98484.64
2022-12-11T05:07:11.558Z,98490.73
2022-12-11T05:09:43.796Z,98477.58
2022-12-11T05:12:16.046Z,98480.55
2022-12-11T05:14:48.495Z,98477.25
2022-12-11T05:17:20.725Z,98478.41
2022-12-11T05:19:54.392Z,98474.27
2022-12-11T05:22:26.802Z,98474.06
2022-12-11T05:24:59.087Z,98479.00
2022-12-11T05:27:31.486Z,98485.48
2022-12-11T05:30:03.701Z,98486.27
2022-12-11T05:32:36.532Z,98492.20
2022-12-11T05:35:10.248Z,98488.98
2022-12-11T05:37:42.690Z,98489.53
2022-12-11T05:40:16.115Z,98493.88
2022-12-11T05:42:48.336Z,98496.05
2022-12-11T05:45:20.755Z,98500.15
2022-12-11T05:47:52.995Z,98500.39
2022-12-11T05:50:25.295Z,98505.81
2022-12-11T05:52:57.572Z,98503.11
2022-12-11T05:55:29.821Z,98504.05
2022-12-11T05:58:02.054Z,98502.04
2022-12-11T06:00:36.142Z,98503.12
2022-12-11T06:03:08.830Z,98507.81
2022-12-11T06:05:43.011Z,98509.90
2022-12-11T06:08:15.299Z,98512.10
2022-12-11T06:10:50.094Z,98529.45
2022-12-11T06:13:22.386Z,98538.96
2022-12-11T06:15:54.923Z,98538.54
2022-12-11T06:18:27.278Z,98541.80
2022-12-11T06:20:59.663Z,98541.30
2022-12-11T06:23:31.879Z,98544.07
2022-12-11T06:26:07.216Z,98547.83
2022-12-11T06:28:39.886Z,98546.00
2022-12-11T06:31:12.747Z,98551.39
2022-12-11T06:33:45.600Z,98550.55
2022-12-11T06:36:19.518Z,98557.09
2022-12-11T06:38:52.457Z,98560.15
2022-12-11T06:41:24.714Z,98554.73
2022-12-11T06:43:57.055Z,98565.50
2022-12-11T06:46:29.480Z,98563.23
2022-12-11T06:49:01.828Z,98576.66
2022-12-11T06:51:34.102Z,98582.48
2022-12-11T06:54:06.673Z,98594.39
2022-12-11T06:56:38.926Z,98593.20
2022-12-11T06:59:14.155Z,98603.30
2022-12-11T07:01:46.778Z,98607.00
2022-12-11T07:04:19.127Z,98614.86
2022-12-11T07:06:51.971Z,98616.52
2022-12-11T07:09:24.483Z,98622.45
2022-12-11T07:11:56.667Z,98620.70
2022-12-11T07:14:28.959Z,98624.30
2022-12-11T07:17:01.576Z,98624.52
2022-12-11T07:19:34.315Z,98617.31
2022-12-11T07:22:06.579Z,98612.52
2022-12-11T07:24:39.042Z,98617.17
2022-12-11T07:27:11.275Z,98622.13
2022-12-11T07:29:45.131Z,98624.63
2022-12-11T07:32:17.778Z,98631.81
2022-12-11T07:34:52.104Z,98636.31
2022-12-11T07:37:25.250Z,98635.35
2022-12-11T07:39:57.912Z,98640.82
2022-12-11T07:42:31.229Z,98644.61
2022-12-11T07:45:03.520Z,98658.44
2022-12-11T07:47:36.489Z,98671.71
2022-12-11T07:50:09.614Z,98679.05
2022-12-11T07:52:42.097Z,98684.64
2022-12-11T07:55:14.878Z,98686.23
2022-12-11T07:57:47.259Z,98688.23
2022-12-11T08:00:20.574Z,98688.57
2022-12-11T08:02:52.947Z,98697.42
2022-12-11T08:05:25.507Z,98700.25
2022-12-11T08:07:57.821Z,98698.70
2022-12-11T08:10:30.088Z,98703.98
2022-12-11T08:13:02.488Z,98698.91
2022-12-11T08:15:35.263Z,98685.97
2022-12-11T08:18:08.522Z,98683.05
2022-12-11T08:20:41.958Z,98674.48
2022-12-11T08:23:14.386Z,98673.85
2022-12-11T08:25:46.693Z,98675.23
2022-12-11T08:28:18.941Z,98678.09
2022-12-11T08:30:51.282Z,98692.05
2022-12-11T08:33:23.552Z,98694.13
2022-12-11T08:35:55.957Z,98694.27
2022-12-11T08:38:28.245Z,98692.30
2022-12-11T08:41:00.513Z,98690.94
2022-12-11T08:43:34.596Z,98689.60
2022-12-11T08:46:07.526Z,98680.38
2022-12-11T08:48:41.486Z,98680.63
2022-12-11T08:51:18.924Z,98676.78
2022-12-11T08:53:52.154Z,98677.23
2022-12-11T08:56:24.931Z,98678.46
2022-12-11T08:58:57.497Z,98678.93
2022-12-11T09:01:30.538Z,98680.38
2022-12-11T09:04:02.833Z,98684.98
2022-12-11T09:06:36.067Z,98686.58
2022-12-11T09:09:08.480Z,98685.77
2022-12-11T09:11:40.806Z,98685.11
2022-12-11T09:14:13.027Z,98680.95
2022-12-11T09:16:45.553Z,98675.73
2022-12-11T09:19:18.022Z,98663.76
2022-12-11T09:21:50.800Z,98660.86
2022-12-11T09:24:25.118Z,98661.00
2022-12-11T09:26:57.406Z,98656.83
2022-12-11T09:29:29.745Z,98659.83
2022-12-11T09:32:01.989Z,98655.05
2022-12-11T09:34:34.450Z,98654.79
2022-12-11T09:37:06.792Z,98657.47
2022-12-11T09:39:38.947Z,98657.39
2022-12-11T09:42:17.820Z,98667.77
2022-12-11T09:44:55.159Z,98680.90
2022-12-11T09:47:36.763Z,98684.23
2022-12-11T09:50:19.096Z,98690.30
2022-12-11T09:53:05.436Z,98688.13
2022-12-11T09:55:45.511Z,98689.54
2022-12-11T09:58:30.029Z,98687.27
2022-12-11T10:01:09.996Z,98678.10
2022-12-11T10:04:02.952Z,98674.49
2022-12-11T10:06:43.206Z,98675.71
2022-12-11T10:09:26.058Z,98672.26
2022-12-11T10:12:09.892Z,98665.58
2022-12-11T10:14:56.997Z,98670.07
2022-12-11T10:17:33.129Z,98666.77
2022-12-11T10:20:16.270Z,98664.13
2022-12-11T10:22:49.995Z,98669.44
2022-12-11T10:25:28.549Z,98669.59
2022-12-11T10:28:01.789Z,98674.67
2022-12-11T10:30:40.891Z,98676.07
2022-12-11T10:33:21.493Z,98669.58
2022-12-11T10:35:57.015Z,98672.16
2022-12-11T10:38:29.893Z,98669.34
2022-12-11T10:41:05.052Z,98666.29
2022-12-11T10:43:39.872Z,98663.77
2022-12-11T10:46:19.082Z,98673.23
2022-12-11T10:48:54.528Z,98664.38
2022-12-11T10:51:34.710Z,98649.70
2022-12-11T10:54:18.649Z,98650.01
2022-12-11T10:56:51.910Z,98656.70
2022-12-11T10:59:30.259Z,98655.58
2022-12-11T11:02:03.381Z,98649.75
2022-12-11T11:04:39.298Z,98652.38
2022-12-11T11:07:17.291Z,98653.19
2022-12-11T11:09:49.839Z,98656.84
2022-12-11T11:12:26.470Z,98655.03
2022-12-11T11:15:07.626Z,98651.23
2022-12-11T11:17:54.622Z,98652.11
2022-12-11T11:20:32.423Z,98650.17
2022-12-11T11:23:12.715Z,98640.79
2022-12-11T11:25:52.863Z,98640.67
2022-12-11T11:28:28.518Z,98640.48
2022-12-11T11:31:03.399Z,98637.80
2022-12-11T11:33:38.005Z,98632.43
2022-12-11T11:36:21.896Z,98638.29
2022-12-11T11:39:09.544Z,98636.91
2022-12-11T11:41:49.380Z,98633.03
2022-12-11T11:44:30.165Z,98636.33
2022-12-11T11:47:08.462Z,98649.16
2022-12-11T11:49:52.308Z,98651.77
2022-12-11T11:52:33.468Z,98659.83
2022-12-11T11:55:21.720Z,98659.88
2022-12-11T11:57:58.638Z,98660.95
2022-12-11T12:00:34.035Z,98659.05
2022-12-11T12:03:10.972Z,98671.55
2022-12-11T12:05:52.959Z,98676.61
2022-12-11T12:08:36.354Z,98675.23
2022-12-11T12:11:20.083Z,98674.40
2022-12-11T12:14:12.855Z,98675.93
2022-12-11T12:17:13.285Z,98674.22
2022-12-11T12:19:58.447Z,98679.52
2022-12-11T12:22:46.951Z,98682.66
2022-12-11T12:25:28.131Z,98682.44
2022-12-11T12:28:07.926Z,98691.91
2022-12-11T12:30:55.673Z,98691.10
2022-12-11T12:33:39.397Z,98691.95
2022-12-11T12:36:23.269Z,98692.38
2022-12-11T12:39:02.620Z,98686.52
2022-12-11T12:41:48.284Z,98678.63
2022-12-11T12:44:23.434Z,98679.46
2022-12-11T12:47:04.800Z,98671.81
2022-12-11T12:49:43.829Z,98675.02
2022-12-11T12:52:20.494Z,98679.46
2022-12-11T12:55:17.329Z,98687.33
2022-12-11T12:57:51.999Z,98688.05
2022-12-11T13:00:34.191Z,98689.59
2022-12-11T13:03:17.794Z,98694.04
2022-12-11T13:06:00.933Z,98705.81
2022-12-11T13:08:38.231Z,98714.27
2022-12-11T13:11:13.457Z,98714.33
2022-12-11T13:13:54.484Z,98722.95
2022-12-11T13:16:39.003Z,98721.89
2022-12-11T13:19:28.339Z,98719.51
2022-12-11T13:22:04.312Z,98723.02
2022-12-11T13:24:46.932Z,98724.56
2022-12-11T13:27:37.231Z,98716.70
2022-12-11T13:30:25.034Z,98730.63
2022-12-11T13:33:06.133Z,98730.11
2022-12-11T13:35:38.700Z,98723.77
2022-12-11T13:38:17.962Z,98726.85
2022-12-11T13:40:55.679Z,98725.19
2022-12-11T13:43:32.103Z,98717.77
2022-12-11T13:46:06.951Z,98721.23
2022-12-11T13:48:45.375Z,98725.69
2022-12-11T13:51:20.155Z,98726.92
2022-12-11T13:54:03.653Z,98723.57
2022-12-11T13:56:36.010Z,98728.52
2022-12-11T13:59:19.882Z,98737.91
2022-12-11T14:01:53.851Z,98742.86
2022-12-11T14:04:28.272Z,98756.70
2022-12-11T14:07:02.700Z,98767.55
2022-12-11T14:09:35.279Z,98766.91
2022-12-11T14:12:08.172Z,98777.29
2022-12-11T14:14:44.757Z,98791.48
2022-12-11T14:17:20.875Z,98800.81
2022-12-11T14:19:54.146Z,98811.02
2022-12-11T14:22:28.407Z,98819.89
2022-12-11T14:25:03.793Z,98812.56
2022-12-11T14:27:36.215Z,98807.31
2022-12-11T14:30:21.161Z,98797.63
2022-12-11T14:32:56.117Z,98770.02
2022-12-11T14:35:37.077Z,98763.24
2022-12-11T14:38:18.271Z,98772.52
2022-12-11T14:40:55.214Z,98773.77
2022-12-11T14:43:32.517Z,98761.44
2022-12-11T14:46:09.864Z,98748.52
2022-12-11T14:48:48.320Z,98743.91
2022-12-11T14:51:23.550Z,98737.73
2022-12-11T14:53:56.936Z,98740.89
2022-12-11T14:56:31.371Z,98762.52
2022-12-11T14:59:09.384Z,98776.05
2022-12-11T15:01:41.774Z,98778.87
2022-12-11T15:04:28.549Z,98779.45
2022-12-11T15:07:01.641Z,98792.16
2022-12-11T15:09:42.568Z,98811.17
2022-12-11T15:12:18.534Z,98816.50
2022-12-11T15:14:55.255Z,98825.68
2022-12-11T15:17:29.363Z,98841.70
2022-12-11T15:20:07.720Z,98866.13
2022-12-11T15:22:44.556Z,98871.61
2022-12-11T15:25:23.682Z,98856.63
2022-12-11T15:27:58.122Z,98852.35
2022-12-11T15:30:34.958Z,98855.52
2022-12-11T15:33:22.343Z,98866.46
2022-12-11T15:36:00.918Z,98876.23
2022-12-11T15:38:36.904Z,98884.20
2022-12-11T15:41:14.451Z,98895.33
2022-12-11T15:43:48.410Z,98893.37
2022-12-11T15:46:21.433Z,98894.16
2022-12-11T15:48:54.015Z,98883.98
2022-12-11T15:51:27.692Z,98878.52
2022-12-11T15:54:00.129Z,98876.57
2022-12-11T15:56:32.478Z,98878.05
2022-12-11T15:59:08.166Z,98877.39
2022-12-11T16:01:40.512Z,98875.96
2022-12-11T16:04:12.798Z,98879.73
2022-12-11T16:06:46.518Z,98885.95
2022-12-11T16:09:18.821Z,98890.61
2022-12-11T16:11:51.132Z,98894.73
2022-12-11T16:14:23.349Z,98889.38
2022-12-11T16:16:55.610Z,98888.27
2022-12-11T16:19:27.871Z,98903.20
2022-12-11T16:22:00.105Z,98901.75
2022-12-11T16:24:33.322Z,98881.16
2022-12-11T16:27:06.949Z,98883.01
2022-12-11T16:29:40.502Z,98889.23
2022-12-11T16:32:13.515Z,98886.12
2022-12-11T16:34:46.187Z,98883.79
2022-12-11T16:37:18.478Z,98886.73
2022-12-11T16:39:51.020Z,98889.05
2022-12-11T16:42:23.286Z,98891.42
2022-12-11T16:44:55.531Z,98910.05
2022-12-11T16:47:27.975Z,98914.13
2022-12-11T16:50:01.479Z,98902.14
2022-12-11T16:52:34.623Z,98912.54
2022-12-11T16:55:07.789Z,98907.86
2022-12-11T16:57:40.662Z,98912.34
2022-12-11T17:00:14.877Z,98918.20
2022-12-11T17:02:47.176Z,98925.48
2022-12-11T17:05:20.159Z,98942.16
2022-12-11T17:07:52.479Z,98943.79
2022-12-11T17:10:24.790Z,98955.76
2022-12-11T17:12:57.113Z,98957.95
2022-12-11T17:15:29.409Z,98960.40
2022-12-11T17:18:01.687Z,98963.29
2022-12-11T17:20:34.053Z,98970.19
2022-12-11T17:23:06.297Z,98970.83
2022-12-11T17:25:40.266Z,98976.73
2022-12-11T17:28:14.087Z,98975.04
2022-12-11T17:30:50.165Z,98980.15
2022-12-11T17:33:22.613Z,98973.04
2022-12-11T17:35:55.020Z,98979.60
2022-12-11T17:38:27.252Z,98991.61
2022-12-11T17:40:59.695Z,99004.34
2022-12-11T17:43:31.916Z,99007.86
2022-12-11T17:46:05.078Z,99009.62
2022-12-11T17:48:37.347Z,99002.40
2022-12-11T17:51:12.801Z,99001.66
2022-12-11T17:53:45.298Z,99001.63
2022-12-11T17:56:17.963Z,99008.73
2022-12-11T17:58:50.674Z,99006.15
2022-12-11T18:01:23.128Z,99020.17
2022-12-11T18:03:55.503Z,99027.82
2022-12-11T18:06:28.080Z,99037.13
2022-12-11T18:09:00.751Z,99047.83
2022-12-11T18:11:33.006Z,99047.95
2022-12-11T18:14:05.267Z,99045.38
2022-12-11T18:16:39.175Z,99047.98
2022-12-11T18:19:11.588Z,99041.70
2022-12-11T18:21:45.898Z,99040.09
2022-12-11T18:24:18.187Z,99042.02
2022-12-11T18:26:50.498Z,99048.17
2022-12-11T18:29:22.804Z,99041.22
2022-12-11T18:31:55.346Z,99042.89
2022-12-11T18:34:27.675Z,99045.23
2022-12-11T18:37:00.249Z,99057.39
2022-12-11T18:39:33.866Z,99055.38
2022-12-11T18:42:33.775Z,99046.63
2022-12-11T18:44:58.759Z,99043.85
2022-12-11T18:47:32.660Z,99045.27
2022-12-11T18:50:08.130Z,99044.02
2022-12-11T18:52:39.059Z,99038.63
2022-12-11T18:55:12.199Z,99035.41
2022-12-11T18:57:44.768Z,99034.19
2022-12-11T19:00:19.394Z,99040.33
2022-12-11T19:02:53.358Z,99043.40
2022-12-11T19:05:25.646Z,99048.35
2022-12-11T19:07:57.973Z,99040.08
2022-12-11T19:10:30.401Z,99037.77
2022-12-11T19:13:02.635Z,99033.66
2022-12-11T19:15:38.688Z,99038.36
2022-12-11T19:18:11.967Z,99056.59
2022-12-11T19:20:49.831Z,99062.94
2022-12-11T19:23:24.712Z,99070.58
2022-12-11T19:25:56.946Z,99065.72
2022-12-11T19:28:29.146Z,99069.83
2022-12-11T19:31:01.406Z,99078.39
2022-12-11T19:33:33.605Z,99073.71
2022-12-11T19:36:09.451Z,99080.30
2022-12-11T19:38:41.081Z,99074.83
2022-12-11T19:41:19.598Z,99078.67
2022-12-11T19:43:52.578Z,99082.46
2022-12-11T19:46:25.540Z,99091.27
2022-12-11T19:49:00.198Z,99095.66
2022-12-11T19:51:34.727Z,99096.04
2022-12-11T19:54:07.416Z,99102.97
2022-12-11T19:56:39.799Z,99106.66
2022-12-11T19:59:14.013Z,99102.60
2022-12-11T20:01:48.163Z,99113.92
2022-12-11T20:04:21.218Z,99110.02
2022-12-11T20:06:53.475Z,99109.65
2022-12-11T20:09:25.752Z,99112.41
2022-12-11T20:11:58.033Z,99115.27
2022-12-11T20:14:30.409Z,99119.25
2022-12-11T20:17:11.891Z,99124.02
2022-12-11T20:19:45.615Z,99140.30
2022-12-11T20:22:17.847Z,99136.77
2022-12-11T20:24:50.085Z,99140.91
2022-12-11T20:27:22.599Z,99137.55
2022-12-11T20:29:54.836Z,99140.54
2022-12-11T20:32:27.201Z,99140.84
2022-12-11T20:35:00.053Z,99141.29
2022-12-11T20:37:32.369Z,99142.20
2022-12-11T20:40:06.266Z,99149.02
2022-12-11T20:42:38.470Z,99156.17
2022-12-11T20:45:13.171Z,99156.27
2022-12-11T20:47:45.812Z,99157.15
2022-12-11T20:50:18.406Z,99153.77
2022-12-11T20:52:50.712Z,99157.25
2022-12-11T20:55:23.082Z,99153.43
2022-12-11T20:57:57.050Z,99161.70
2022-12-11T21:00:29.372Z,99168.73
2022-12-11T21:03:01.638Z,99169.23
2022-12-11T21:05:34.088Z,99170.42
2022-12-11T21:08:06.683Z,99168.75
2022-12-11T21:10:42.147Z,99159.52
2022-12-11T21:13:14.587Z,99160.92
2022-12-11T21:15:46.842Z,99160.55
2022-12-11T21:18:19.223Z,99172.77
2022-12-11T21:20:56.631Z,99182.39
2022-12-11T21:23:29.176Z,99181.81
2022-12-11T21:26:01.859Z,99179.16
2022-12-11T21:28:35.789Z,99177.73
2022-12-11T21:31:10.851Z,99185.23
2022-12-11T21:33:43.158Z,99195.75
2022-12-11T21:36:16.774Z,99184.94
2022-12-11T21:38:49.682Z,99188.23
2022-12-11T21:41:24.511Z,99196.82
2022-12-11T21:46:50.596Z,99203.26
2022-12-11T21:49:23.086Z,99204.27
2022-12-11T21:51:55.371Z,99208.02
2022-12-11T21:54:27.866Z,99215.38
2022-12-11T21:57:00.146Z,99213.64
2022-12-11T21:59:32.491Z,99215.70
2022-12-11T22:02:05.170Z,99215.41
2022-12-11T22:04:37.952Z,99205.92
2022-12-11T22:07:10.738Z,99202.98
2022-12-11T22:09:43.014Z,99196.21
2022-12-11T22:12:23.282Z,99191.80
2022-12-11T22:14:55.778Z,99195.84
2022-12-11T22:17:28.115Z,99200.35
2022-12-11T22:20:00.358Z,99205.05
2022-12-11T22:22:32.755Z,99200.70
2022-12-11T22:25:07.878Z,99210.15
2022-12-11T22:27:40.187Z,99214.52
2022-12-11T22:30:14.445Z,99223.11
2022-12-11T22:32:47.408Z,99227.27
2022-12-11T22:35:24.139Z,99234.34
2022-12-11T22:37:59.353Z,99254.70
2022-12-11T22:40:32.324Z,99255.63
2022-12-11T22:43:04.658Z,99245.64
2022-12-11T22:45:41.519Z,99245.16
2022-12-11T22:48:13.847Z,99246.05
2022-12-11T22:50:46.576Z,99249.73
2022-12-11T22:53:18.867Z,99245.13
2022-12-11T22:55:51.248Z,99243.37
2022-12-11T22:58:23.660Z,99238.05
2022-12-11T23:00:55.888Z,99236.55
2022-12-11T23:03:28.198Z,99239.66
2022-12-11T23:06:05.014Z,99238.84
2022-12-11T23:08:38.467Z,99236.26
2022-12-11T23:11:16.191Z,99244.98
2022-12-11T23:13:48.565Z,99249.48
2022-12-11T23:16:22.429Z,99257.71
2022-12-11T23:18:55.288Z,99265.16
2022-12-11T23:21:28.813Z,99264.84
2022-12-11T23:24:01.638Z,99267.55
2022-12-11T23:26:34.054Z,99269.66
2022-12-11T23:29:07.940Z,99269.17
2022-12-11T23:31:40.188Z,99271.15
2022-12-11T23:34:12.499Z,99262.65
2022-12-11T23:36:44.810Z,99261.38
2022-12-11T23:39:17.212Z,99260.89
2022-12-11T23:41:49.495Z,99266.67
2022-12-11T23:44:21.771Z,99261.70
2022-12-11T23:46:54.043Z,99254.58
2022-12-11T23:49:26.354Z,99259.78
2022-12-11T23:51:58.702Z,99267.26
2022-12-11T23:54:31.025Z,99272.38
2022-12-11T23:57:03.230Z,99286.82
2022-12-11T23:59:35.711Z,99277.56
